createdAt,value
2018-04-13T00:00:22.546Z,11.17
2018-04-13T00:03:27.749Z,10.70
2018-04-13T00:06:33.000Z,11.73
2018-04-13T00:09:38.263Z,11.27
2018-04-13T00:12:44.241Z,10.93
2018-04-13T00:15:49.498Z,11.40
2018-04-13T00:18:54.758Z,12.60
2018-04-13T00:22:00.508Z,11.47
2018-04-13T00:25:06.369Z,12.23
2018-04-13T00:28:12.367Z,12.60
2018-04-13T00:31:17.825Z,12.13
2018-04-13T00:34:23.465Z,11.40
2018-04-13T00:37:28.734Z,11.73
2018-04-13T00:40:34.821Z,11.80
2018-04-13T00:43:40.842Z,11.37
2018-04-13T00:46:47.037Z,12.23
2018-04-13T00:49:53.174Z,12.07
2018-04-13T00:53:10.239Z,12.90
2018-04-13T00:56:15.585Z,10.60
2018-04-13T00:59:20.806Z,13.23
2018-04-13T01:02:26.036Z,12.60
2018-04-13T01:05:31.242Z,13.30
2018-04-13T01:08:37.405Z,12.67
2018-04-13T01:11:43.685Z,12.20
2018-04-13T01:14:49.318Z,13.60
2018-04-13T01:17:54.543Z,12.43
2018-04-13T01:20:59.757Z,13.40
2018-04-13T01:24:05.993Z,13.07
2018-04-13T01:27:11.538Z,13.63
2018-04-13T01:30:16.758Z,13.10
2018-04-13T01:33:22.638Z,13.90
2018-04-13T01:36:28.779Z,13.07
2018-04-13T01:39:34.421Z,13.50
2018-04-13T01:42:39.634Z,12.70
2018-04-13T01:45:44.569Z,13.50
2018-04-13T01:48:49.812Z,13.17
2018-04-13T01:51:55.005Z,13.73
2018-04-13T01:55:00.766Z,13.63
2018-04-13T01:58:05.698Z,13.37
2018-04-13T02:01:10.646Z,12.40
2018-04-13T02:04:15.862Z,14.17
2018-04-13T02:07:21.825Z,13.33
2018-04-13T02:10:27.975Z,14.03
2018-04-13T02:13:33.893Z,14.90
2018-04-13T02:16:40.013Z,13.70
2018-04-13T02:19:45.002Z,13.60
2018-04-13T02:22:51.126Z,14.40
2018-04-13T02:25:56.841Z,14.50
2018-04-13T02:29:03.065Z,13.87
2018-04-13T02:32:08.115Z,14.83
2018-04-13T02:35:13.396Z,14.57
2018-04-13T02:38:18.674Z,14.00
2018-04-13T02:41:23.947Z,14.23
2018-04-13T02:44:29.227Z,13.90
2018-04-13T02:47:35.422Z,15.13
2018-04-13T02:50:41.514Z,14.10
2018-04-13T02:53:48.642Z,14.60
2018-04-13T02:56:54.496Z,15.27
2018-04-13T03:00:00.509Z,14.27
2018-04-13T03:03:07.237Z,14.07
2018-04-13T03:06:13.453Z,15.40
2018-04-13T03:09:18.723Z,14.73
2018-04-13T03:12:24.922Z,15.03
2018-04-13T03:15:31.586Z,15.27
2018-04-13T03:18:36.858Z,14.53
2018-04-13T03:21:42.141Z,14.80
2018-04-13T03:24:48.333Z,14.80
2018-04-13T03:27:53.609Z,15.90
2018-04-13T03:30:58.929Z,15.00
2018-04-13T03:34:05.134Z,15.60
2018-04-13T03:37:10.413Z,15.80
2018-04-13T03:40:16.125Z,16.20
2018-04-13T03:43:21.721Z,16.07
2018-04-13T03:46:27.006Z,16.23
2018-04-13T03:49:32.282Z,16.20
2018-04-13T03:52:38.489Z,16.80
2018-04-13T03:55:44.681Z,17.63
2018-04-13T03:58:50.762Z,19.13
2018-04-13T04:01:56.038Z,17.20
2018-04-13T04:05:01.366Z,18.60
2018-04-13T04:08:06.642Z,17.10
2018-04-13T04:11:12.860Z,17.07
2018-04-13T04:14:18.137Z,16.57
2018-04-13T04:17:23.426Z,19.20
2018-04-13T04:20:39.945Z,17.40
2018-04-13T04:23:57.585Z,16.70
2018-04-13T04:27:03.485Z,17.37
2018-04-13T04:30:09.489Z,17.17
2018-04-13T04:33:15.686Z,17.33
2018-04-13T04:36:21.904Z,18.00
2018-04-13T04:39:26.909Z,19.17
2018-04-13T04:42:32.232Z,17.77
2018-04-13T04:45:38.426Z,18.73
2018-04-13T04:48:43.753Z,17.07
2018-04-13T04:51:49.302Z,18.00
2018-04-13T04:54:55.398Z,18.87
2018-04-13T04:58:01.387Z,17.70
2018-04-13T05:01:07.277Z,18.50
2018-04-13T05:04:12.550Z,18.37
2018-04-13T05:07:18.744Z,18.33
2018-04-13T05:10:24.949Z,19.00
2018-04-13T05:13:30.931Z,20.30
2018-04-13T05:16:35.880Z,18.57
2018-04-13T05:19:41.155Z,18.83
2018-04-13T05:22:47.043Z,18.43
2018-04-13T05:25:52.337Z,18.43
2018-04-13T05:28:58.242Z,20.23
2018-04-13T05:32:03.533Z,19.10
2018-04-13T05:35:08.812Z,18.67
2018-04-13T05:38:14.125Z,18.03
2018-04-13T05:41:19.722Z,18.77
2018-04-13T05:44:25.938Z,20.70
2018-04-13T05:47:31.228Z,18.87
2018-04-13T05:50:36.511Z,19.47
2018-04-13T05:53:42.733Z,19.57
2018-04-13T05:56:48.742Z,18.60
2018-04-13T05:59:54.821Z,18.80
2018-04-13T06:03:00.926Z,19.30
2018-04-13T06:06:07.054Z,18.97
2018-04-13T06:09:13.425Z,19.00
2018-04-13T06:12:19.550Z,20.23
2018-04-13T06:15:25.622Z,20.70
2018-04-13T06:18:31.486Z,19.90
2018-04-13T06:21:37.678Z,20.33
2018-04-13T06:24:43.692Z,19.57
2018-04-13T06:27:49.794Z,20.57
2018-04-13T06:30:55.886Z,20.83
2018-04-13T06:34:01.161Z,19.50
2018-04-13T06:37:09.054Z,20.77
2018-04-13T06:40:14.953Z,20.77
2018-04-13T06:43:21.246Z,19.73
2018-04-13T06:46:27.040Z,19.97
2018-04-13T06:49:32.338Z,20.80
2018-04-13T06:52:38.535Z,20.53
2018-04-13T06:55:43.822Z,20.47
2018-04-13T06:58:49.097Z,20.60
2018-04-13T07:01:54.381Z,20.40
2018-04-13T07:05:00.166Z,20.77
2018-04-13T07:08:05.442Z,20.17
2018-04-13T07:11:10.715Z,20.70
2018-04-13T07:14:16.919Z,20.00
2018-04-13T07:17:22.229Z,21.47
2018-04-13T07:20:27.527Z,21.93
2018-04-13T07:23:32.799Z,21.60
2018-04-13T07:26:38.108Z,21.67
2018-04-13T07:29:43.385Z,22.27
2018-04-13T07:32:49.581Z,20.73
2018-04-13T07:35:55.711Z,22.80
2018-04-13T07:39:01.883Z,24.13
2018-04-13T07:42:07.706Z,23.60
2018-04-13T07:45:12.993Z,22.87
2018-04-13T07:48:18.268Z,23.97
2018-04-13T07:51:24.613Z,21.80
2018-04-13T07:54:30.759Z,23.00
2018-04-13T07:57:36.665Z,22.50
2018-04-13T08:00:43.759Z,22.37
2018-04-13T08:03:49.549Z,22.23
2018-04-13T08:06:55.558Z,22.07
2018-04-13T08:10:01.742Z,22.73
2018-04-13T08:13:07.939Z,22.70
2018-04-13T08:16:13.680Z,23.10
2018-04-13T08:19:19.859Z,24.13
2018-04-13T08:22:25.153Z,22.90
2018-04-13T08:25:30.151Z,24.43
2018-04-13T08:28:36.973Z,23.70
2018-04-13T08:31:42.926Z,24.57
2018-04-13T08:34:48.209Z,22.97
2018-04-13T08:37:53.514Z,24.13
2018-04-13T08:40:58.792Z,23.27
2018-04-13T08:44:04.089Z,23.60
2018-04-13T08:47:09.394Z,23.80
2018-04-13T08:50:15.409Z,23.60
2018-04-13T08:53:21.643Z,26.80
2018-04-13T08:56:26.925Z,23.20
2018-04-13T08:59:32.233Z,23.33
2018-04-13T09:02:38.445Z,24.63
2018-04-13T09:05:43.507Z,24.20
2018-04-13T09:08:48.790Z,24.00
2018-04-13T09:11:54.749Z,24.30
2018-04-13T09:15:00.034Z,22.70
2018-04-13T09:18:06.095Z,23.10
2018-04-13T09:21:11.879Z,24.20
2018-04-13T09:24:17.889Z,25.10
2018-04-13T09:27:23.885Z,22.73
2018-04-13T09:30:30.088Z,25.03
2018-04-13T09:33:35.049Z,25.83
2018-04-13T09:36:40.339Z,24.10
2018-04-13T09:39:45.647Z,25.07
2018-04-13T09:42:50.927Z,26.93
2018-04-13T09:45:56.219Z,23.47
2018-04-13T09:49:01.518Z,25.97
2018-04-13T09:52:07.634Z,25.87
2018-04-13T09:55:13.642Z,24.80
2018-04-13T09:58:25.297Z,24.67
2018-04-13T10:01:40.643Z,25.00
2018-04-13T10:04:56.274Z,26.43
2018-04-13T10:08:01.628Z,24.87
2018-04-13T10:11:12.245Z,24.30
2018-04-13T10:14:23.054Z,24.70
2018-04-13T10:17:28.940Z,24.20
2018-04-13T10:20:40.673Z,24.43
2018-04-13T10:23:46.874Z,21.43
2018-04-13T10:26:53.073Z,26.83
2018-04-13T10:29:59.007Z,24.10
2018-04-13T10:33:04.286Z,23.87
2018-04-13T10:36:09.584Z,25.63
2018-04-13T10:39:15.797Z,25.70
2018-04-13T10:42:21.819Z,24.40
2018-04-13T10:45:27.713Z,23.37
2018-04-13T10:48:33.573Z,25.20
2018-04-13T10:51:38.870Z,25.80
2018-04-13T10:54:44.154Z,24.17
2018-04-13T10:57:50.065Z,26.00
2018-04-13T11:00:56.186Z,25.70
2018-04-13T11:04:02.195Z,22.83
2018-04-13T11:07:08.301Z,22.83
2018-04-13T11:10:14.532Z,23.90
2018-04-13T11:13:21.699Z,24.23
2018-04-13T11:16:27.497Z,23.80
2018-04-13T11:19:32.791Z,24.43
2018-04-13T11:22:38.081Z,22.90
2018-04-13T11:25:43.386Z,25.20
2018-04-13T11:28:49.582Z,22.50
2018-04-13T11:31:54.877Z,23.27
2018-04-13T11:35:00.163Z,22.37
2018-04-13T11:38:06.254Z,24.03
2018-04-13T11:41:11.553Z,25.17
2018-04-13T11:44:16.837Z,24.20
2018-04-13T11:47:22.941Z,24.00
2018-04-13T11:50:29.065Z,24.20
2018-04-13T11:53:35.078Z,24.37
2018-04-13T11:56:41.188Z,23.60
2018-04-13T11:59:47.281Z,23.73
2018-04-13T12:02:52.885Z,24.90
2018-04-13T12:05:58.154Z,23.50
2018-04-13T12:09:03.223Z,21.90
2018-04-13T12:12:08.230Z,24.20
2018-04-13T12:15:13.525Z,23.43
2018-04-13T12:18:19.777Z,23.70
2018-04-13T12:21:25.075Z,23.20
2018-04-13T12:24:30.366Z,22.63
2018-04-13T12:27:36.259Z,21.83
2018-04-13T12:30:42.366Z,23.17
2018-04-13T12:33:47.193Z,21.17
2018-04-13T12:36:53.401Z,21.93
2018-04-13T12:39:59.328Z,20.97
2018-04-13T12:43:04.609Z,20.27
2018-04-13T12:46:10.444Z,19.77
2018-04-13T12:49:15.734Z,23.80
2018-04-13T12:52:21.007Z,22.73
2018-04-13T12:55:26.330Z,23.70
2018-04-13T12:58:31.789Z,22.70
2018-04-13T13:01:37.821Z,20.10
2018-04-13T13:04:43.933Z,21.67
2018-04-13T13:07:50.134Z,18.90
2018-04-13T13:10:55.407Z,21.50
2018-04-13T13:14:01.630Z,21.80
2018-04-13T13:17:06.643Z,21.07
2018-04-13T13:20:12.220Z,21.43
2018-04-13T13:23:18.421Z,22.63
2018-04-13T13:26:23.457Z,21.90
2018-04-13T13:29:28.759Z,23.10
2018-04-13T13:32:34.052Z,21.97
2018-04-13T13:35:39.352Z,21.13
2018-04-13T13:38:45.441Z,20.80
2018-04-13T13:41:51.650Z,21.77
2018-04-13T13:44:57.618Z,21.60
2018-04-13T13:48:02.909Z,19.03
2018-04-13T13:51:08.202Z,22.60
2018-04-13T13:54:13.505Z,22.90
2018-04-13T13:57:19.246Z,22.07
2018-04-13T14:00:25.053Z,20.80
2018-04-13T14:03:30.334Z,20.53
2018-04-13T14:06:35.645Z,21.97
2018-04-13T14:09:40.934Z,20.10
2018-04-13T14:12:46.217Z,21.97
2018-04-13T14:15:51.511Z,22.80
2018-04-13T14:18:56.793Z,22.47
2018-04-13T14:22:02.085Z,20.83
2018-04-13T14:25:07.378Z,22.07
2018-04-13T14:28:13.504Z,22.00
2018-04-13T14:31:18.795Z,23.53
2018-04-13T14:34:24.994Z,23.57
2018-04-13T14:37:31.329Z,22.27
2018-04-13T14:40:36.615Z,22.10
2018-04-13T14:43:42.943Z,23.33
2018-04-13T14:46:47.942Z,22.67
2018-04-13T14:49:53.961Z,23.13
2018-04-13T14:52:59.545Z,21.43
2018-04-13T14:56:05.741Z,22.30
2018-04-13T14:59:12.594Z,22.57
2018-04-13T15:02:17.882Z,23.63
2018-04-13T15:05:23.312Z,23.10
2018-04-13T15:08:28.837Z,21.47
2018-04-13T15:11:33.836Z,22.93
2018-04-13T15:14:41.134Z,21.97
2018-04-13T15:17:46.126Z,23.03
2018-04-13T15:20:51.967Z,20.20
2018-04-13T15:23:57.001Z,21.40
2018-04-13T15:27:02.306Z,22.80
2018-04-13T15:30:07.588Z,23.90
2018-04-13T15:33:12.874Z,23.00
2018-04-13T15:36:17.880Z,23.47
2018-04-13T15:39:22.897Z,22.07
2018-04-13T15:42:27.900Z,22.70
2018-04-13T15:45:33.795Z,24.67
2018-04-13T15:48:39.309Z,22.73
2018-04-13T15:51:44.505Z,23.80
2018-04-13T15:54:49.519Z,23.53
2018-04-13T15:57:54.525Z,22.50
2018-04-13T16:00:59.546Z,24.00
2018-04-13T16:04:04.231Z,21.87
2018-04-13T16:07:09.966Z,22.30
2018-04-13T16:10:15.756Z,22.33
2018-04-13T16:13:21.502Z,23.27
2018-04-13T16:16:26.517Z,22.60
2018-04-13T16:19:32.139Z,22.30
2018-04-13T16:22:37.977Z,22.00
2018-04-13T16:25:42.994Z,22.00
2018-04-13T16:28:48.014Z,21.97
2018-04-13T16:31:53.052Z,22.53
2018-04-13T16:34:58.062Z,21.23
2018-04-13T16:38:03.329Z,22.27
2018-04-13T16:41:09.253Z,22.37
2018-04-13T16:44:14.283Z,20.13
2018-04-13T16:47:19.285Z,20.80
2018-04-13T16:50:24.799Z,20.60
2018-04-13T16:53:30.719Z,20.50
2018-04-13T16:56:35.732Z,20.83
2018-04-13T16:59:41.742Z,20.10
2018-04-13T17:02:47.363Z,20.43
2018-04-13T17:05:53.226Z,21.97
2018-04-13T17:08:59.055Z,21.30
2018-04-13T17:12:04.077Z,19.60
2018-04-13T17:15:09.090Z,20.30
2018-04-13T17:18:15.548Z,19.90
2018-04-13T17:21:20.550Z,20.20
2018-04-13T17:24:26.216Z,20.40
2018-04-13T17:27:32.149Z,18.60
2018-04-13T17:30:38.165Z,20.20
2018-04-13T17:33:43.686Z,18.30
2018-04-13T17:36:49.635Z,18.50
2018-04-13T17:39:55.550Z,19.00
2018-04-13T17:43:01.501Z,18.20
2018-04-13T17:46:06.698Z,17.60
2018-04-13T17:49:11.709Z,17.33
2018-04-13T17:52:16.709Z,18.50
2018-04-13T17:55:22.643Z,18.80
2018-04-13T17:58:27.654Z,16.70
2018-04-13T18:01:33.203Z,17.77
2018-04-13T18:04:39.149Z,17.23
2018-04-13T18:07:44.973Z,17.23
2018-04-13T18:10:51.454Z,16.70
2018-04-13T18:13:56.228Z,18.27
2018-04-13T18:17:01.779Z,17.93
2018-04-13T18:20:06.798Z,17.53
2018-04-13T18:23:11.582Z,17.90
2018-04-13T18:26:18.206Z,16.77
2018-04-13T18:29:23.714Z,17.53
2018-04-13T18:32:29.750Z,15.97
2018-04-13T18:35:35.283Z,17.40
2018-04-13T18:38:40.281Z,17.03
2018-04-13T18:41:45.462Z,18.77
2018-04-13T18:44:50.461Z,17.20
2018-04-13T18:47:55.759Z,18.07
2018-04-13T18:51:00.771Z,18.47
2018-04-13T18:54:05.770Z,17.10
2018-04-13T18:57:11.602Z,18.80
2018-04-13T19:00:16.598Z,18.00
2018-04-13T19:03:21.612Z,17.67
2018-04-13T19:06:27.529Z,19.17
2018-04-13T19:09:32.548Z,18.10
2018-04-13T19:12:37.561Z,18.87
2018-04-13T19:15:42.982Z,18.60
2018-04-13T19:18:47.998Z,19.27
2018-04-13T19:21:53.275Z,18.20
2018-04-13T19:24:58.285Z,19.93
2018-04-13T19:28:04.482Z,19.10
2018-04-13T19:31:09.495Z,18.90
2018-04-13T19:34:15.115Z,18.70
2018-04-13T19:37:21.307Z,20.70
2018-04-13T19:40:26.310Z,19.80
2018-04-13T19:43:32.242Z,20.80
2018-04-13T19:46:37.243Z,19.23
2018-04-13T19:49:43.788Z,20.20
2018-04-13T19:52:48.793Z,19.40
2018-04-13T19:55:54.804Z,19.33
2018-04-13T19:58:59.820Z,19.17
2018-04-13T20:02:04.815Z,21.07
2018-04-13T20:05:10.430Z,21.43
2018-04-13T20:08:15.454Z,20.50
2018-04-13T20:11:20.455Z,19.50
2018-04-13T20:14:25.492Z,19.87
2018-04-13T20:17:30.501Z,20.40
2018-04-13T20:20:36.150Z,19.87
2018-04-13T20:23:41.157Z,19.60
2018-04-13T20:26:46.163Z,18.40
2018-04-13T20:29:50.969Z,19.17
2018-04-13T20:32:56.695Z,20.70
2018-04-13T20:36:03.397Z,19.87
2018-04-13T20:39:08.935Z,19.53
2018-04-13T20:42:14.758Z,19.90
2018-04-13T20:45:19.757Z,21.67
2018-04-13T20:48:24.759Z,19.70
2018-04-13T20:51:30.486Z,19.83
2018-04-13T20:54:35.521Z,19.30
2018-04-13T20:57:41.527Z,18.77
2018-04-13T21:00:47.483Z,17.67
2018-04-13T21:03:52.473Z,17.03
2018-04-13T21:06:58.103Z,20.27
2018-04-13T21:10:04.821Z,18.43
2018-04-13T21:13:10.110Z,18.40
2018-04-13T21:16:15.121Z,16.93
2018-04-13T21:19:20.120Z,18.67
2018-04-13T21:22:25.742Z,18.40
2018-04-13T21:25:30.770Z,17.70
2018-04-13T21:28:36.786Z,18.20
2018-04-13T21:31:43.217Z,17.10
2018-04-13T21:34:49.223Z,16.43
2018-04-13T21:37:54.750Z,16.97
2018-04-13T21:40:59.758Z,18.43
2018-04-13T21:44:04.753Z,17.83
2018-04-13T21:47:09.754Z,18.70
2018-04-13T21:50:15.114Z,17.33
2018-04-13T21:53:20.129Z,17.53
2018-04-13T21:56:26.068Z,17.33
2018-04-13T21:59:32.073Z,16.27
2018-04-13T22:02:37.589Z,18.20
2018-04-13T22:05:43.522Z,15.10
2018-04-13T22:08:48.528Z,17.00
2018-04-13T22:11:55.092Z,17.00
2018-04-13T22:15:00.086Z,17.10
2018-04-13T22:18:04.857Z,15.97
2018-04-13T22:21:10.670Z,16.60
2018-04-13T22:24:15.672Z,16.70
2018-04-13T22:27:20.674Z,16.17
2018-04-13T22:30:25.671Z,16.17
2018-04-13T22:33:30.670Z,14.47
2018-04-13T22:36:36.389Z,15.83
2018-04-13T22:39:41.397Z,16.03
2018-04-13T22:42:46.690Z,15.07
2018-04-13T22:45:51.986Z,13.83
2018-04-13T22:48:57.258Z,16.93
2018-04-13T22:52:03.370Z,15.53
2018-04-13T22:55:09.222Z,15.03
2018-04-13T22:58:15.121Z,14.67
2018-04-13T23:01:20.118Z,17.07
2018-04-13T23:04:25.949Z,15.60
2018-04-13T23:07:32.130Z,16.30
2018-04-13T23:10:37.941Z,15.27
2018-04-13T23:13:43.833Z,16.30
2018-04-13T23:16:50.043Z,15.33
2018-04-13T23:19:55.330Z,15.60
2018-04-13T23:23:00.602Z,14.67
2018-04-13T23:26:05.889Z,15.00
2018-04-13T23:29:11.805Z,14.23
2018-04-13T23:32:17.090Z,13.43
2018-04-13T23:35:22.368Z,15.20
2018-04-13T23:38:27.442Z,15.43
2018-04-13T23:41:33.332Z,15.93
2018-04-13T23:44:38.598Z,15.57
2018-04-13T23:47:43.888Z,15.37
2018-04-13T23:50:49.150Z,16.20
2018-04-13T23:53:55.433Z,16.60
2018-04-13T23:57:01.271Z,17.00
